»·PEaware :: N235B KBFL-KMHV

N235B :: KBFL-KMHV

FLIGHT INFORMATION

Flight Status: Arrived
Operator: Privately registered:
United States
More flights under this callsign
Pilot: Jason D. (29273)
Aircraft: CESSNA 172 SKYHAWK
(C172)
More flights by this aircraft type
Origin: KBFL Meadows
United States
Destination: KMHV Mojave
United States
More flights between these airports :: More routes between these airports
Route: KBFL DCT KMHV
File this flight plan on PilotEdge
Remarks:
Altitude:
(Current/Filed)
9,500ft
Speed:
(Current/Filed)
110kts
Departed: 29-Apr-20 09:34 AM
Arrived: 29-Apr-20 10:08 AM
Distance/Time
Traveled:
50nm/0:34
Distance/Time
To Go:
Arrived

Flight Plot

Page will automatically refresh every two minutes.

Flight plan parsing failed; only flown route is shown


Map Options




Map Legend


Flown Route
Filed Route
Departure Airport
Arrival Airport
Navaid (VOR, NDB)
Fix

Horizontal Profiles

Position Reports

Time Latitude Longitude Heading Altitude Ground
Speed
29-Apr-20 09:15 35.435703 -119.052044 180 504ft 0kts
29-Apr-20 09:16 35.435703 -119.052044 180 504ft 0kts
29-Apr-20 09:17 35.435703 -119.052044 179 504ft 0kts
29-Apr-20 09:18 35.435703 -119.052044 179 504ft 0kts
29-Apr-20 09:19 35.435703 -119.052044 179 504ft 0kts
29-Apr-20 09:20 35.435703 -119.052044 180 504ft 0kts
29-Apr-20 09:21 35.435703 -119.052044 180 504ft 0kts
29-Apr-20 09:22 35.435703 -119.052044 179 504ft 0kts
29-Apr-20 09:23 35.435703 -119.052044 180 504ft 0kts
29-Apr-20 09:24 35.435703 -119.052044 180 504ft 0kts
29-Apr-20 09:25 35.435703 -119.052044 180 504ft 0kts
29-Apr-20 09:26 35.435703 -119.052044 180 504ft 0kts
29-Apr-20 09:27 35.435703 -119.052044 180 504ft 0kts
29-Apr-20 09:28 35.435703 -119.052044 180 504ft 0kts
29-Apr-20 09:29 35.435034 -119.053800 217 497ft 25kts
29-Apr-20 09:30 35.428422 -119.047395 135 488ft 39kts
29-Apr-20 09:31 35.425720 -119.045078 221 479ft 0kts
29-Apr-20 09:32 35.425720 -119.045078 221 479ft 0kts
29-Apr-20 09:33 35.429699 -119.051510 314 526ft 69kts
29-Apr-20 09:34 35.441567 -119.067314 313 1045ft 65kts
29-Apr-20 09:35 35.451812 -119.069856 130 1629ft 72kts
29-Apr-20 09:37 35.439216 -119.050977 129 2247ft 72kts
29-Apr-20 09:38 35.428546 -119.030444 122 2832ft 72kts
29-Apr-20 09:39 35.417965 -119.009843 110 3390ft 71kts
29-Apr-20 09:40 35.412020 -118.987477 119 3914ft 72kts
29-Apr-20 09:41 35.401351 -118.967204 115 4431ft 69kts
29-Apr-20 09:42 35.391496 -118.945386 113 4846ft 79kts
29-Apr-20 09:43 35.379717 -118.920947 115 5189ft 96kts
29-Apr-20 09:44 35.366408 -118.891641 115 5555ft 99kts
29-Apr-20 09:45 35.353116 -118.862136 115 5953ft 96kts
29-Apr-20 09:46 35.342449 -118.836461 111 6512ft 80kts
29-Apr-20 09:47 35.333503 -118.812021 111 6927ft 78kts
29-Apr-20 09:48 35.324339 -118.788106 115 7312ft 77kts
29-Apr-20 09:49 35.313710 -118.763224 115 7526ft 95kts
29-Apr-20 09:50 35.299737 -118.730289 115 7450ft 115kts
29-Apr-20 09:51 35.284855 -118.695446 115 7472ft 115kts
29-Apr-20 09:52 35.269829 -118.660499 115 7495ft 116kts
29-Apr-20 09:52 35.257402 -118.631042 109 7514ft 116kts
29-Apr-20 09:54 35.243140 -118.587981 113 7542ft 117kts
29-Apr-20 09:55 35.228712 -118.551841 113 7563ft 118kts
29-Apr-20 09:55 35.216562 -118.521434 113 7563ft 119kts
29-Apr-20 09:56 35.201943 -118.484823 113 7563ft 120kts
29-Apr-20 09:58 35.184855 -118.442010 113 7563ft 120kts
29-Apr-20 09:58 35.172645 -118.411406 113 7562ft 120kts
29-Apr-20 09:59 35.156899 -118.373067 117 7370ft 115kts
29-Apr-20 10:00 35.141697 -118.338708 118 7225ft 119kts
29-Apr-20 10:01 35.123318 -118.303905 121 6739ft 123kts
29-Apr-20 10:02 35.103537 -118.269729 124 6076ft 124kts
29-Apr-20 10:03 35.079572 -118.239371 157 5270ft 129kts
29-Apr-20 10:04 35.059760 -118.226374 145 4709ft 81kts
29-Apr-20 10:05 35.056053 -118.206181 70 3746ft 73kts
29-Apr-20 10:06 35.059214 -118.181785 86 3066ft 66kts
29-Apr-20 10:07 35.059205 -118.161624 94 2771ft 36kts
29-Apr-20 10:08 35.057096 -118.157392 89 2762ft 0kts

Navigation Log

Ident Type
Flight plan parsing failed, navigation log unavailable